Time;durP1;ratioP1;P1;durP2;ratioP2;P2;SDS_P1;SDS_P2;PMS_P1;PMS_P2;Temp;Humidity;BMP_temperature;BMP_pressure;BME280_temperature;BME280_humidity;BME280_pressure;Samples;Min_cycle;Max_cycle;Signal;HPM_P1;HPM_P2
2023/05/23 00:03:49;;;;;;;13.17;11.73;;;;;;;;;;10150165;28;20062;-68
2023/05/23 00:08:45;;;;;;;13.07;11.68;;;;;;;;;;10130527;28;21042;-67
2023/05/23 00:13:42;;;;;;;12.85;11.52;;;;;;;;;;10158818;28;20408;-67
2023/05/23 00:18:41;;;;;;;13.63;12.23;;;;;;;;;;10149551;28;20042;-67
2023/05/23 00:23:46;;;;;;;13.77;12.43;;;;;;;;;;10146685;28;20050;-67
2023/05/23 00:28:45;;;;;;;13.98;12.25;;;;;;;;;;10148473;28;20089;-67
2023/05/23 00:33:47;;;;;;;13.05;11.75;;;;;;;;;;10140299;28;20043;-65
2023/05/23 00:38:50;;;;;;;15.18;13.57;;;;;;;;;;10145456;28;20047;-66
2023/05/23 00:43:51;;;;;;;18.15;15.10;;;;;;;;;;10142374;28;20050;-67
2023/05/23 00:48:55;;;;;;;16.52;13.45;;;;;;;;;;10134867;28;20058;-67
2023/05/23 00:53:52;;;;;;;17.23;15.63;;;;;;;;;;10154782;28;20042;-66
2023/05/23 00:58:53;;;;;;;19.55;16.38;;;;;;;;;;10144678;28;20082;-68
2023/05/23 01:03:50;;;;;;;16.33;14.73;;;;;;;;;;10142485;28;20047;-67
2023/05/23 01:08:49;;;;;;;17.83;14.73;;;;;;;;;;10148389;28;20043;-67
2023/05/23 01:14:04;;;;;;;20.00;16.35;;;;;;;;;;10136905;28;20054;-66
2023/05/23 01:19:10;;;;;;;17.85;16.02;;;;;;;;;;10149403;28;20749;-69
2023/05/23 01:24:09;;;;;;;18.73;16.83;;;;;;;;;;10139745;28;20045;-73
2023/05/23 01:29:10;;;;;;;18.55;16.85;;;;;;;;;;10143546;28;20061;-73
2023/05/23 01:34:07;;;;;;;17.40;15.70;;;;;;;;;;10136927;28;20169;-73
2023/05/23 01:39:03;;;;;;;17.70;15.90;;;;;;;;;;10131884;28;20120;-73
2023/05/23 01:44:00;;;;;;;20.75;16.90;;;;;;;;;;10145816;28;20105;-73
2023/05/23 01:48:57;;;;;;;19.70;17.73;;;;;;;;;;10142602;28;20538;-73
2023/05/23 01:53:54;;;;;;;17.95;16.20;;;;;;;;;;10143449;28;20571;-73
2023/05/23 01:58:50;;;;;;;18.45;16.60;;;;;;;;;;10133859;28;20046;-77
2023/05/23 02:03:47;;;;;;;21.02;18.92;;;;;;;;;;10138829;28;20058;-69
2023/05/23 02:08:43;;;;;;;24.92;22.33;;;;;;;;;;10141946;28;20062;-69
2023/05/23 02:13:40;;;;;;;28.20;25.50;;;;;;;;;;10150344;28;20074;-69
2023/05/23 02:18:37;;;;;;;34.67;31.13;;;;;;;;;;10150681;28;20058;-68
2023/05/23 02:23:33;;;;;;;36.72;33.08;;;;;;;;;;10135134;28;20050;-68
2023/05/23 02:28:29;;;;;;;41.25;37.15;;;;;;;;;;10140475;28;20432;-73
2023/05/23 02:33:26;;;;;;;40.72;36.40;;;;;;;;;;10139591;28;20058;-73
2023/05/23 02:38:22;;;;;;;41.80;37.53;;;;;;;;;;10126305;28;20393;-72
2023/05/23 02:43:18;;;;;;;42.38;37.95;;;;;;;;;;10132483;28;20077;-72
2023/05/23 02:48:15;;;;;;;44.65;39.47;;;;;;;;;;10141544;28;20050;-71
2023/05/23 02:53:11;;;;;;;53.88;42.47;;;;;;;;;;10143911;28;20042;-69
2023/05/23 02:58:08;;;;;;;58.40;42.72;;;;;;;;;;10140225;28;20483;-69
2023/05/23 03:03:04;;;;;;;48.55;38.53;;;;;;;;;;10131453;28;20046;-65
2023/05/23 03:08:00;;;;;;;59.63;41.47;;;;;;;;;;10133387;28;20042;-64
2023/05/23 03:12:57;;;;;;;61.58;42.88;;;;;;;;;;10144714;28;20047;-65
2023/05/23 03:17:53;;;;;;;50.45;39.78;;;;;;;;;;10145839;28;20074;-64
2023/05/23 03:22:52;;;;;;;59.22;40.58;;;;;;;;;;10146581;28;20048;-64
2023/05/23 03:27:49;;;;;;;52.33;38.75;;;;;;;;;;10140423;28;20058;-64
2023/05/23 03:32:45;;;;;;;54.22;38.28;;;;;;;;;;10143822;28;20126;-70
2023/05/23 03:37:42;;;;;;;54.67;37.47;;;;;;;;;;10134691;28;20141;-70
2023/05/23 03:42:38;;;;;;;47.70;34.38;;;;;;;;;;10142586;28;20304;-70
2023/05/23 03:47:35;;;;;;;46.03;32.88;;;;;;;;;;10147059;28;20120;-69
2023/05/23 03:52:31;;;;;;;47.67;31.33;;;;;;;;;;10146021;28;20057;-68
2023/05/23 03:57:28;;;;;;;37.55;30.75;;;;;;;;;;10128016;28;20161;-67
2023/05/23 04:02:27;;;;;;;42.10;32.20;;;;;;;;;;10144422;28;20748;-67
2023/05/23 04:07:25;;;;;;;45.67;33.47;;;;;;;;;;10126065;28;20092;-67
2023/05/23 04:12:21;;;;;;;42.13;32.05;;;;;;;;;;10131196;28;20114;-67
2023/05/23 04:17:18;;;;;;;45.83;33.05;;;;;;;;;;10130910;28;20050;-67
2023/05/23 04:22:14;;;;;;;44.58;33.30;;;;;;;;;;10129394;28;20638;-68
2023/05/23 04:27:12;;;;;;;47.50;32.28;;;;;;;;;;10128395;28;20057;-69
2023/05/23 04:32:08;;;;;;;49.03;35.13;;;;;;;;;;10129649;28;20038;-69
2023/05/23 04:37:06;;;;;;;57.35;36.00;;;;;;;;;;10140861;28;20058;-69
2023/05/23 04:42:02;;;;;;;57.58;32.70;;;;;;;;;;10152728;28;20389;-69
2023/05/23 04:47:01;;;;;;;59.55;35.75;;;;;;;;;;10149099;28;20053;-70
2023/05/23 04:51:58;;;;;;;56.30;36.63;;;;;;;;;;10144984;28;20093;-70
2023/05/23 04:56:55;;;;;;;63.22;35.53;;;;;;;;;;10146097;28;20038;-69
2023/05/23 05:01:51;;;;;;;59.85;37.72;;;;;;;;;;10152115;28;20042;-70
2023/05/23 05:06:47;;;;;;;59.72;36.70;;;;;;;;;;10149183;28;20050;-70
2023/05/23 05:11:44;;;;;;;57.05;35.35;;;;;;;;;;10142152;28;20046;-70
2023/05/23 05:16:41;;;;;;;59.53;39.67;;;;;;;;;;10140090;28;20162;-70
2023/05/23 05:21:38;;;;;;;62.05;36.30;;;;;;;;;;10140600;28;20748;-70
2023/05/23 05:26:35;;;;;;;57.00;36.65;;;;;;;;;;10143740;28;20078;-68
2023/05/23 05:31:31;;;;;;;56.33;37.38;;;;;;;;;;10140451;28;20050;-67
2023/05/23 05:36:31;;;;;;;54.45;36.13;;;;;;;;;;10140772;28;20043;-68
2023/05/23 05:41:27;;;;;;;62.58;38.30;;;;;;;;;;10140761;28;20057;-69
2023/05/23 05:46:23;;;;;;;55.55;35.50;;;;;;;;;;10147954;28;20540;-68
2023/05/23 05:51:20;;;;;;;62.60;38.58;;;;;;;;;;10143076;28;20035;-68
2023/05/23 05:56:17;;;;;;;61.78;37.60;;;;;;;;;;10147378;28;20050;-68
2023/05/23 06:01:14;;;;;;;65.35;40.00;;;;;;;;;;10138142;28;20523;-68
2023/05/23 06:06:10;;;;;;;60.10;38.78;;;;;;;;;;10138855;28;20069;-68
2023/05/23 06:11:07;;;;;;;64.25;40.40;;;;;;;;;;10147569;28;20066;-68
2023/05/23 06:16:04;;;;;;;76.45;42.50;;;;;;;;;;10145818;28;20050;-68
2023/05/23 06:21:01;;;;;;;67.95;41.85;;;;;;;;;;10150097;28;20042;-68
2023/05/23 06:25:58;;;;;;;62.95;38.72;;;;;;;;;;10136886;28;20050;-68
2023/05/23 06:30:54;;;;;;;64.60;40.30;;;;;;;;;;10145525;28;20054;-68
2023/05/23 06:35:51;;;;;;;67.03;39.35;;;;;;;;;;10141533;28;20054;-68
2023/05/23 06:40:47;;;;;;;74.35;42.50;;;;;;;;;;10141988;28;20157;-68
2023/05/23 06:45:47;;;;;;;58.88;35.78;;;;;;;;;;10140678;28;20058;-68
2023/05/23 06:50:43;;;;;;;58.72;37.30;;;;;;;;;;10145686;28;20402;-68
2023/05/23 06:55:39;;;;;;;57.92;36.22;;;;;;;;;;10144913;28;20097;-67
2023/05/23 07:00:35;;;;;;;59.60;35.83;;;;;;;;;;10145880;28;20118;-68
2023/05/23 07:05:33;;;;;;;46.17;29.40;;;;;;;;;;10142801;28;20116;-68
2023/05/23 07:10:29;;;;;;;45.78;29.77;;;;;;;;;;10133979;28;20058;-68
2023/05/23 07:15:26;;;;;;;28.25;21.33;;;;;;;;;;10133043;28;20421;-68
2023/05/23 07:20:22;;;;;;;20.67;17.77;;;;;;;;;;10139245;28;20050;-68
2023/05/23 07:25:18;;;;;;;18.65;16.48;;;;;;;;;;10131778;28;20046;-67
2023/05/23 07:30:15;;;;;;;17.08;15.30;;;;;;;;;;10135552;28;20575;-68
2023/05/23 07:35:11;;;;;;;18.25;15.48;;;;;;;;;;10139727;28;20042;-68
2023/05/23 07:40:09;;;;;;;18.30;13.93;;;;;;;;;;10138047;28;20038;-68
2023/05/23 07:45:05;;;;;;;15.40;13.75;;;;;;;;;;10135515;28;20122;-68
2023/05/23 07:50:02;;;;;;;17.65;14.75;;;;;;;;;;10130503;28;20083;-69
2023/05/23 07:55:00;;;;;;;15.27;13.75;;;;;;;;;;10140765;28;20039;-68
2023/05/23 07:59:57;;;;;;;14.82;12.60;;;;;;;;;;10145693;28;20050;-66
2023/05/23 08:04:53;;;;;;;13.75;11.93;;;;;;;;;;10148777;28;20492;-67
2023/05/23 08:09:49;;;;;;;12.35;10.55;;;;;;;;;;10138794;28;20050;-67
2023/05/23 08:14:46;;;;;;;13.10;11.40;;;;;;;;;;10143539;28;20047;-67
2023/05/23 08:19:47;;;;;;;10.87;9.77;;;;;;;;;;10135148;28;20505;-68
2023/05/23 08:24:44;;;;;;;11.27;10.10;;;;;;;;;;10143935;28;20046;-67
2023/05/23 08:29:41;;;;;;;11.50;10.40;;;;;;;;;;10148684;28;20061;-67
2023/05/23 08:34:39;;;;;;;12.63;10.23;;;;;;;;;;10148461;28;20558;-67
2023/05/23 08:39:35;;;;;;;10.45;8.90;;;;;;;;;;10144316;28;20047;-67
2023/05/23 08:44:31;;;;;;;9.07;8.15;;;;;;;;;;10143648;28;20051;-67
2023/05/23 08:49:28;;;;;;;9.23;8.32;;;;;;;;;;10138742;28;20047;-67
2023/05/23 08:54:25;;;;;;;14.45;9.30;;;;;;;;;;10134695;28;20062;-67
2023/05/23 08:59:22;;;;;;;11.95;10.68;;;;;;;;;;10145850;28;20500;-67
2023/05/23 09:04:19;;;;;;;11.02;9.95;;;;;;;;;;10149495;28;20046;-67
2023/05/23 09:09:16;;;;;;;12.38;11.13;;;;;;;;;;10146645;28;20085;-68
2023/05/23 09:14:13;;;;;;;14.68;11.65;;;;;;;;;;10135046;28;20050;-67
2023/05/23 09:19:10;;;;;;;12.75;11.43;;;;;;;;;;10150769;28;20042;-67
2023/05/23 09:24:07;;;;;;;14.52;12.77;;;;;;;;;;10147920;28;20074;-67
2023/05/23 09:29:04;;;;;;;18.25;14.25;;;;;;;;;;10143193;28;20382;-67
2023/05/23 09:34:01;;;;;;;18.90;14.75;;;;;;;;;;10136241;28;20054;-67
2023/05/23 09:39:00;;;;;;;18.63;14.48;;;;;;;;;;10136718;28;20039;-67
2023/05/23 09:44:00;;;;;;;19.48;15.15;;;;;;;;;;10144567;28;20050;-67
2023/05/23 09:48:56;;;;;;;17.02;13.40;;;;;;;;;;10141642;28;20583;-67
2023/05/23 09:53:52;;;;;;;16.15;13.30;;;;;;;;;;10144905;28;20104;-67
2023/05/23 09:58:49;;;;;;;12.80;11.55;;;;;;;;;;10145398;28;20053;-67
2023/05/23 10:03:50;;;;;;;11.93;10.15;;;;;;;;;;10145934;28;20042;-67
2023/05/23 10:08:55;;;;;;;11.88;10.65;;;;;;;;;;10140660;28;20416;-68
2023/05/23 10:13:52;;;;;;;10.90;9.25;;;;;;;;;;10141356;28;20043;-67
2023/05/23 10:18:54;;;;;;;13.45;9.73;;;;;;;;;;10142178;28;20129;-67
2023/05/23 10:23:50;;;;;;;12.53;9.50;;;;;;;;;;10131215;28;20576;-67
2023/05/23 10:28:48;;;;;;;12.02;9.32;;;;;;;;;;10140069;28;20714;-67
2023/05/23 10:33:48;;;;;;;13.93;9.10;;;;;;;;;;10146775;28;21340;-67
2023/05/23 10:38:51;;;;;;;11.82;8.90;;;;;;;;;;10147770;28;20069;-67
2023/05/23 10:44:09;;;;;;;12.05;8.32;;;;;;;;;;10148790;28;20090;-67
2023/05/23 10:49:07;;;;;;;8.77;7.97;;;;;;;;;;10140230;28;20057;-67
2023/05/23 10:54:09;;;;;;;11.00;8.27;;;;;;;;;;10138339;28;20723;-67
2023/05/23 10:59:05;;;;;;;;;;;;;;;;;;10136359;28;20054;-68
2023/05/23 11:04:04;;;;;;;9.75;7.82;;;;;;;;;;10144976;28;19954;-67
2023/05/23 11:09:21;;;;;;;9.20;6.75;;;;;;;;;;10134506;28;20050;-67
2023/05/23 11:14:18;;;;;;;16.58;6.95;;;;;;;;;;10139263;28;20091;-67
2023/05/23 11:19:17;;;;;;;12.63;7.10;;;;;;;;;;10144782;28;20050;-67
2023/05/23 11:24:14;;;;;;;13.38;7.60;;;;;;;;;;10143619;28;20050;-67
2023/05/23 11:29:15;;;;;;;11.13;6.82;;;;;;;;;;10147420;28;20035;-67
2023/05/23 11:34:12;;;;;;;12.93;6.68;;;;;;;;;;10140792;28;20495;-67
2023/05/23 11:39:09;;;;;;;9.98;7.47;;;;;;;;;;10141039;28;20108;-68
2023/05/23 11:44:12;;;;;;;12.35;6.80;;;;;;;;;;10153811;28;20109;-68
2023/05/23 11:49:11;;;;;;;12.68;8.38;;;;;;;;;;10150255;28;20553;-68
2023/05/23 11:54:07;;;;;;;13.70;7.00;;;;;;;;;;10136086;28;20066;-68
2023/05/23 11:59:04;;;;;;;12.70;7.63;;;;;;;;;;10152580;28;20070;-68
2023/05/23 12:04:08;;;;;;;16.15;8.18;;;;;;;;;;10130915;28;20112;-68
2023/05/23 12:09:05;;;;;;;15.38;7.65;;;;;;;;;;10138367;28;20552;-68
2023/05/23 12:14:05;;;;;;;11.80;7.05;;;;;;;;;;10136338;28;20098;-68
2023/05/23 12:19:02;;;;;;;12.27;7.30;;;;;;;;;;10145435;28;20038;-68
2023/05/23 12:23:58;;;;;;;15.38;7.63;;;;;;;;;;10137800;28;20485;-68
2023/05/23 12:28:59;;;;;;;12.90;7.28;;;;;;;;;;10148962;28;20138;-68
2023/05/23 12:33:56;;;;;;;12.95;7.40;;;;;;;;;;10146768;28;20154;-68
2023/05/23 12:38:52;;;;;;;16.02;8.52;;;;;;;;;;10153006;28;20053;-68
2023/05/23 12:43:50;;;;;;;13.32;7.55;;;;;;;;;;10143269;28;20046;-68
2023/05/23 12:48:46;;;;;;;14.60;7.78;;;;;;;;;;10131660;28;20504;-68
2023/05/23 12:53:45;;;;;;;17.58;7.20;;;;;;;;;;10147829;28;20047;-68
2023/05/23 12:58:42;;;;;;;14.77;7.65;;;;;;;;;;10151147;28;20046;-68
2023/05/23 13:03:42;;;;;;;14.27;8.18;;;;;;;;;;10147007;28;20062;-68
2023/05/23 13:08:38;;;;;;;12.57;7.95;;;;;;;;;;10145976;28;20038;-68
2023/05/23 13:13:34;;;;;;;16.40;8.18;;;;;;;;;;10144035;28;20563;-68
2023/05/23 13:18:31;;;;;;;11.77;6.88;;;;;;;;;;10150394;28;20050;-68
2023/05/23 13:23:27;;;;;;;14.18;7.18;;;;;;;;;;10145062;28;20476;-68
2023/05/23 13:28:23;;;;;;;15.05;7.53;;;;;;;;;;10147507;28;20077;-67
2023/05/23 13:33:21;;;;;;;18.13;7.82;;;;;;;;;;10146923;28;20092;-68
2023/05/23 13:38:18;;;;;;;12.68;7.78;;;;;;;;;;10145027;28;20058;-67
2023/05/23 13:43:15;;;;;;;14.52;7.50;;;;;;;;;;10133980;28;20042;-67
2023/05/23 13:48:11;;;;;;;16.08;7.63;;;;;;;;;;10138080;28;20050;-67
2023/05/23 13:53:13;;;;;;;13.48;7.63;;;;;;;;;;10139184;28;20043;-67
2023/05/23 13:58:10;;;;;;;16.42;7.78;;;;;;;;;;10134367;28;20098;-67
2023/05/23 14:03:07;;;;;;;13.57;7.18;;;;;;;;;;10148971;28;20046;-68
2023/05/23 14:08:06;;;;;;;18.73;7.40;;;;;;;;;;10133484;28;20057;-67
2023/05/23 14:13:05;;;;;;;14.75;7.45;;;;;;;;;;10148239;28;20559;-68
2023/05/23 14:18:01;;;;;;;13.05;7.60;;;;;;;;;;10150390;28;20593;-67
2023/05/23 14:22:57;;;;;;;17.55;8.05;;;;;;;;;;10147254;28;20069;-68
2023/05/23 14:27:54;;;;;;;13.60;7.63;;;;;;;;;;10132643;28;20453;-67
2023/05/23 14:32:50;;;;;;;14.68;8.10;;;;;;;;;;10135460;28;20520;-67
2023/05/23 14:37:47;;;;;;;15.57;8.23;;;;;;;;;;10136991;28;20093;-67
2023/05/23 14:42:43;;;;;;;16.15;8.27;;;;;;;;;;10145847;28;20042;-68
2023/05/23 14:47:40;;;;;;;12.30;7.28;;;;;;;;;;10131963;28;20050;-68
2023/05/23 14:52:36;;;;;;;12.18;7.90;;;;;;;;;;10133656;28;20034;-68
2023/05/23 14:57:32;;;;;;;17.40;8.25;;;;;;;;;;10142492;28;20084;-68
2023/05/23 15:02:29;;;;;;;18.13;7.97;;;;;;;;;;10144151;28;20053;-68
2023/05/23 15:07:26;;;;;;;13.40;7.13;;;;;;;;;;10141067;28;20069;-68
2023/05/23 15:12:22;;;;;;;17.30;7.50;;;;;;;;;;10134994;28;20142;-70
2023/05/23 15:17:20;;;;;;;18.92;8.60;;;;;;;;;;10137799;28;20054;-70
2023/05/23 15:22:20;;;;;;;15.90;7.00;;;;;;;;;;10142540;28;20504;-70
2023/05/23 15:27:32;;;;;;;20.50;7.68;;;;;;;;;;10144810;28;20531;-69
2023/05/23 15:32:29;;;;;;;12.18;7.45;;;;;;;;;;10140688;28;20057;-69
2023/05/23 15:37:25;;;;;;;16.20;7.57;;;;;;;;;;10144368;28;20050;-69
2023/05/23 15:42:22;;;;;;;13.32;6.95;;;;;;;;;;10145572;28;20046;-69
2023/05/23 15:47:19;;;;;;;16.90;8.30;;;;;;;;;;10142585;28;20112;-69
2023/05/23 15:52:15;;;;;;;18.23;7.75;;;;;;;;;;10138807;28;20056;-69
2023/05/23 15:57:12;;;;;;;17.25;8.15;;;;;;;;;;10144517;28;20448;-69
2023/05/23 16:02:09;;;;;;;15.20;7.93;;;;;;;;;;10144119;28;20082;-68
2023/05/23 16:07:05;;;;;;;16.35;7.75;;;;;;;;;;10138554;28;20101;-68
2023/05/23 16:12:02;;;;;;;14.02;8.27;;;;;;;;;;10127377;28;20065;-70
2023/05/23 16:17:00;;;;;;;19.33;8.43;;;;;;;;;;10146015;28;20138;-68
2023/05/23 16:21:59;;;;;;;17.20;8.38;;;;;;;;;;10143702;28;20401;-69
2023/05/23 16:27:00;;;;;;;22.42;8.68;;;;;;;;;;10145167;28;20046;-69
2023/05/23 16:31:56;;;;;;;20.95;9.00;;;;;;;;;;10134789;28;20050;-69
2023/05/23 16:36:53;;;;;;;21.73;8.57;;;;;;;;;;10140445;28;20050;-69
2023/05/23 16:41:49;;;;;;;16.60;8.18;;;;;;;;;;10156204;28;20046;-69
2023/05/23 16:46:48;;;;;;;14.80;7.57;;;;;;;;;;10140492;28;20058;-68
2023/05/23 16:51:45;;;;;;;15.30;7.57;;;;;;;;;;10151312;28;20053;-68
2023/05/23 16:56:44;;;;;;;17.10;8.10;;;;;;;;;;10142492;28;20038;-70
2023/05/23 17:01:40;;;;;;;15.52;7.55;;;;;;;;;;10149052;28;20141;-69
2023/05/23 17:06:36;;;;;;;20.95;8.68;;;;;;;;;;10142629;28;20049;-69
2023/05/23 17:11:33;;;;;;;16.33;7.53;;;;;;;;;;10136390;28;20058;-70
2023/05/23 17:16:31;;;;;;;18.33;7.22;;;;;;;;;;10137631;28;20096;-70
2023/05/23 17:21:28;;;;;;;22.73;7.35;;;;;;;;;;10133870;28;20061;-69
2023/05/23 17:26:25;;;;;;;17.90;7.57;;;;;;;;;;10130944;28;20054;-69
2023/05/23 17:31:22;;;;;;;17.30;6.85;;;;;;;;;;10133195;28;20083;-69
2023/05/23 17:36:18;;;;;;;19.52;8.60;;;;;;;;;;10129127;28;20046;-70
2023/05/23 17:41:14;;;;;;;19.10;8.73;;;;;;;;;;10133443;28;20157;-69
2023/05/23 17:46:11;;;;;;;21.25;7.28;;;;;;;;;;10140518;28;20419;-69
2023/05/23 17:51:07;;;;;;;17.75;8.00;;;;;;;;;;10138963;28;20039;-69
2023/05/23 17:56:04;;;;;;;19.08;8.57;;;;;;;;;;10147774;28;20074;-69
2023/05/23 18:01:01;;;;;;;20.80;7.43;;;;;;;;;;10144144;28;20073;-68
2023/05/23 18:05:58;;;;;;;23.10;7.78;;;;;;;;;;10139482;28;20927;-69
2023/05/23 18:10:55;;;;;;;19.60;7.82;;;;;;;;;;10133338;28;20140;-69
2023/05/23 18:15:51;;;;;;;17.85;7.00;;;;;;;;;;10126409;28;20081;-69
2023/05/23 18:20:48;;;;;;;16.65;7.20;;;;;;;;;;10138572;28;20492;-69
2023/05/23 18:25:44;;;;;;;16.48;6.93;;;;;;;;;;10145062;28;20072;-69
2023/05/23 18:30:40;;;;;;;16.75;7.03;;;;;;;;;;10129467;28;20420;-69
2023/05/23 18:35:37;;;;;;;23.15;6.97;;;;;;;;;;10133836;28;20111;-69
2023/05/23 18:40:33;;;;;;;17.77;7.10;;;;;;;;;;10136781;28;20051;-69
2023/05/23 18:45:30;;;;;;;20.75;7.30;;;;;;;;;;10132488;28;20057;-68
2023/05/23 18:50:26;;;;;;;24.73;8.02;;;;;;;;;;10124852;28;20063;-69
2023/05/23 18:55:26;;;;;;;16.30;6.78;;;;;;;;;;10139326;28;20065;-69
2023/05/23 19:00:22;;;;;;;16.50;7.25;;;;;;;;;;10140633;28;20050;-69
2023/05/23 19:05:18;;;;;;;20.40;7.10;;;;;;;;;;10130848;28;20047;-70
2023/05/23 19:10:15;;;;;;;14.15;6.50;;;;;;;;;;10133214;28;20050;-69
2023/05/23 19:15:11;;;;;;;16.13;6.75;;;;;;;;;;10129084;28;20057;-69
2023/05/23 19:20:09;;;;;;;17.48;7.15;;;;;;;;;;10139896;28;20054;-70
2023/05/23 19:25:06;;;;;;;19.00;7.40;;;;;;;;;;10136655;28;20537;-69
2023/05/23 19:30:02;;;;;;;17.08;7.20;;;;;;;;;;10125009;28;20050;-69
2023/05/23 19:34:59;;;;;;;14.60;6.40;;;;;;;;;;10127378;28;20720;-69
2023/05/23 19:39:57;;;;;;;15.98;6.80;;;;;;;;;;10135877;28;20046;-68
2023/05/23 19:44:53;;;;;;;16.77;6.45;;;;;;;;;;10132190;28;20069;-69
2023/05/23 19:49:50;;;;;;;16.02;6.38;;;;;;;;;;10125636;28;20543;-70
2023/05/23 19:54:46;;;;;;;17.33;7.32;;;;;;;;;;10143535;28;20042;-70
2023/05/23 19:59:42;;;;;;;21.90;7.65;;;;;;;;;;10122910;28;20074;-68
2023/05/23 20:04:39;;;;;;;13.95;6.93;;;;;;;;;;10136125;28;20062;-67
2023/05/23 20:09:36;;;;;;;18.10;8.07;;;;;;;;;;10131320;28;20057;-67
2023/05/23 20:14:33;;;;;;;16.58;6.90;;;;;;;;;;10138080;28;20522;-67
2023/05/23 20:19:29;;;;;;;24.77;7.95;;;;;;;;;;10148917;28;20054;-66
2023/05/23 20:24:29;;;;;;;16.17;7.80;;;;;;;;;;10142573;28;20133;-67
2023/05/23 20:29:25;;;;;;;25.33;8.05;;;;;;;;;;10141283;28;20054;-64
2023/05/23 20:34:21;;;;;;;23.17;7.45;;;;;;;;;;10140684;28;20046;-63
2023/05/23 20:39:18;;;;;;;20.83;8.73;;;;;;;;;;10140237;28;20047;-64
2023/05/23 20:44:17;;;;;;;18.98;7.32;;;;;;;;;;10139015;28;20042;-64
2023/05/23 20:49:14;;;;;;;23.17;8.27;;;;;;;;;;10140278;28;20038;-66
2023/05/23 20:54:11;;;;;;;19.58;7.32;;;;;;;;;;10144622;28;20034;-66
2023/05/23 20:59:11;;;;;;;25.60;8.23;;;;;;;;;;10141036;28;20039;-66
2023/05/23 21:04:07;;;;;;;29.27;8.20;;;;;;;;;;10143859;28;20061;-64
2023/05/23 21:09:03;;;;;;;24.48;8.20;;;;;;;;;;10142591;28;20042;-64
2023/05/23 21:14:02;;;;;;;29.50;8.88;;;;;;;;;;10141854;28;20042;-65
2023/05/23 21:18:59;;;;;;;36.72;7.85;;;;;;;;;;10127320;28;20049;-65
2023/05/23 21:23:55;;;;;;;26.58;8.63;;;;;;;;;;10139075;28;20046;-66
2023/05/23 21:28:51;;;;;;;22.20;8.18;;;;;;;;;;10138808;28;20479;-66
2023/05/23 21:33:48;;;;;;;25.42;8.18;;;;;;;;;;10144202;28;20417;-66
2023/05/23 21:38:44;;;;;;;23.98;7.32;;;;;;;;;;10134781;28;20043;-63
2023/05/23 21:43:40;;;;;;;24.45;8.35;;;;;;;;;;10130333;28;20132;-64
2023/05/23 21:48:37;;;;;;;34.50;8.88;;;;;;;;;;10143654;28;20464;-64
2023/05/23 21:53:33;;;;;;;31.13;8.90;;;;;;;;;;10146260;28;20696;-64
2023/05/23 21:58:29;;;;;;;27.00;8.48;;;;;;;;;;10137844;28;20128;-67
2023/05/23 22:03:26;;;;;;;26.70;7.65;;;;;;;;;;10132522;28;20536;-67
2023/05/23 22:08:22;;;;;;;29.00;8.18;;;;;;;;;;10144655;28;20085;-68
2023/05/23 22:13:19;;;;;;;25.17;7.25;;;;;;;;;;10141862;28;20066;-65
2023/05/23 22:18:15;;;;;;;33.60;8.98;;;;;;;;;;10132251;28;20507;-65
2023/05/23 22:23:15;;;;;;;29.95;7.68;;;;;;;;;;10129190;28;20055;-65
2023/05/23 22:28:12;;;;;;;22.33;7.82;;;;;;;;;;10141185;28;20161;-65
2023/05/23 22:33:11;;;;;;;28.58;8.75;;;;;;;;;;10140873;28;20057;-66
2023/05/23 22:38:09;;;;;;;26.67;8.10;;;;;;;;;;10126053;28;20142;-66
2023/05/23 22:43:05;;;;;;;35.72;8.45;;;;;;;;;;10144863;28;20460;-67
2023/05/23 22:48:02;;;;;;;27.27;9.27;;;;;;;;;;10140526;28;20066;-65
2023/05/23 22:52:59;;;;;;;30.73;9.98;;;;;;;;;;10136382;28;20042;-65
2023/05/23 22:57:55;;;;;;;26.85;8.75;;;;;;;;;;10129505;28;20050;-66
2023/05/23 23:02:52;;;;;;;28.42;7.97;;;;;;;;;;10140213;28;20825;-66
2023/05/23 23:07:52;;;;;;;31.35;8.63;;;;;;;;;;10138247;28;20413;-64
2023/05/23 23:12:48;;;;;;;37.20;8.18;;;;;;;;;;10138333;28;20050;-64
2023/05/23 23:17:45;;;;;;;24.67;7.93;;;;;;;;;;10137624;28;20452;-66
2023/05/23 23:22:41;;;;;;;27.20;9.45;;;;;;;;;;10136443;28;20062;-66
2023/05/23 23:27:38;;;;;;;33.33;8.18;;;;;;;;;;10135581;28;20046;-66
2023/05/23 23:32:35;;;;;;;28.40;8.52;;;;;;;;;;10132046;28;20639;-65
2023/05/23 23:37:31;;;;;;;26.70;7.40;;;;;;;;;;10133220;28;20082;-66
2023/05/23 23:42:27;;;;;;;28.48;8.15;;;;;;;;;;10138451;28;20504;-65
2023/05/23 23:47:24;;;;;;;26.25;7.60;;;;;;;;;;10144276;28;20051;-65
2023/05/23 23:52:20;;;;;;;27.85;8.77;;;;;;;;;;10133975;28;20047;-65
2023/05/23 23:57:16;;;;;;;24.30;7.80;;;;;;;;;;10152216;28;20656;-65
